Terminal Aerodrome Forecast
Issued by NWS Cleveland, OH

Home | Current Version | Previous Version | Graphics & Text | Print | Product List | Glossary On
Versions: 1 2 3 4 5 6 7 8 9 10 11 12 13 14 15 16 17 18
000
FTUS41 KCLE 220351 AAA
TAFERI
TAF AMD
KERI 220351Z 2204/2224 31010KT P6SM OVC015
      TEMPO 2204/2207 5SM -SHRA OVC008
     FM220700 30010KT 3SM -SHRASN OVC025
     FM221000 30010KT P6SM -SHSN OVC025
     FM221600 31008KT P6SM BKN035=

USA.gov is the U.S. government's official web portal to all federal, state and local government web resources and services.